createdAt,value
2018-07-28T00:00:01.902Z,1002.83
2018-07-28T00:01:01.894Z,1002.82
2018-07-28T00:02:01.883Z,1002.87
2018-07-28T00:03:01.872Z,1002.85
2018-07-28T00:04:01.868Z,1002.81
2018-07-28T00:05:01.856Z,1002.81
2018-07-28T00:06:01.851Z,1002.82
2018-07-28T00:07:01.835Z,1002.76
2018-07-28T00:08:01.825Z,1002.75
2018-07-28T00:09:01.821Z,1002.73
2018-07-28T00:10:01.804Z,1002.74
2018-07-28T00:11:01.792Z,1002.69
2018-07-28T00:12:01.784Z,1002.69
2018-07-28T00:13:01.773Z,1002.72
2018-07-28T00:14:01.763Z,1002.67
2018-07-28T00:15:01.753Z,1002.69
2018-07-28T00:16:01.747Z,1002.71
2018-07-28T00:17:01.735Z,1002.66
2018-07-28T00:18:01.734Z,1002.66
2018-07-28T00:19:01.721Z,1002.67
2018-07-28T00:20:01.707Z,1002.66
2018-07-28T00:21:01.699Z,1002.65
2018-07-28T00:22:01.692Z,1002.66
2018-07-28T00:23:01.674Z,1002.67
2018-07-28T00:24:01.664Z,1002.64
2018-07-28T00:25:01.654Z,1002.65
2018-07-28T00:26:01.645Z,1002.66
2018-07-28T00:27:01.637Z,1002.65
2018-07-28T00:28:01.624Z,1002.64
2018-07-28T00:29:01.617Z,1002.62
2018-07-28T00:30:01.606Z,1002.62
2018-07-28T00:31:01.596Z,1002.65
2018-07-28T00:32:01.586Z,1002.67
2018-07-28T00:33:01.575Z,1002.67
2018-07-28T00:34:01.564Z,1002.64
2018-07-28T00:35:01.555Z,1002.68
2018-07-28T00:36:01.545Z,1002.63
2018-07-28T00:37:01.535Z,1002.67
2018-07-28T00:38:01.534Z,1002.63
2018-07-28T00:39:01.545Z,1002.67
2018-07-28T00:40:01.506Z,1002.63
2018-07-28T00:41:01.497Z,1002.61
2018-07-28T00:42:01.485Z,1002.62
2018-07-28T00:43:01.480Z,1002.60
2018-07-28T00:44:01.466Z,1002.60
2018-07-28T00:45:01.464Z,1002.55
2018-07-28T00:46:01.446Z,1002.55
2018-07-28T00:47:01.442Z,1002.56
2018-07-28T00:48:01.426Z,1002.51
2018-07-28T00:49:01.417Z,1002.54
2018-07-28T00:50:01.414Z,1002.48
2018-07-28T00:51:01.396Z,1002.51
2018-07-28T00:52:01.394Z,1002.54
2018-07-28T00:53:01.382Z,1002.52
2018-07-28T00:54:01.366Z,1002.46
2018-07-28T00:55:01.357Z,1002.43
2018-07-28T00:56:01.346Z,1002.45
2018-07-28T00:57:01.338Z,1002.42
2018-07-28T00:58:01.334Z,1002.43
2018-07-28T00:59:01.315Z,1002.37
2018-07-28T01:00:01.309Z,1002.45
2018-07-28T01:01:01.296Z,1002.40
2018-07-28T01:02:01.286Z,1002.38
2018-07-28T01:03:01.277Z,1002.38
2018-07-28T01:04:01.264Z,1002.35
2018-07-28T01:05:01.261Z,1002.36
2018-07-28T01:06:01.246Z,1002.34
2018-07-28T01:07:01.235Z,1002.33
2018-07-28T01:08:01.244Z,1002.31
2018-07-28T01:09:01.216Z,1002.28
2018-07-28T01:10:01.222Z,1002.29
2018-07-28T01:11:01.196Z,1002.32
2018-07-28T01:12:01.184Z,1002.27
2018-07-28T01:13:01.184Z,1002.31
2018-07-28T01:14:01.165Z,1002.29
2018-07-28T01:15:01.152Z,1002.29
2018-07-28T01:16:01.152Z,1002.25
2018-07-28T01:17:01.136Z,1002.24
2018-07-28T01:18:01.120Z,1002.25
2018-07-28T01:19:01.112Z,1002.20
2018-07-28T01:20:01.101Z,1002.19
2018-07-28T01:21:01.093Z,1002.18
2018-07-28T01:22:01.082Z,1002.14
2018-07-28T01:23:01.070Z,1002.14
2018-07-28T01:24:01.061Z,1002.09
2018-07-28T01:25:01.061Z,1002.14
2018-07-28T01:26:01.039Z,1002.12
2018-07-28T01:27:01.028Z,1002.09
2018-07-28T01:28:01.027Z,1002.11
2018-07-28T01:29:01.015Z,1002.07
2018-07-28T01:30:00.998Z,1002.07
2018-07-28T01:31:00.989Z,1002.06
2018-07-28T01:32:00.979Z,1002.05
2018-07-28T01:33:00.968Z,1002.03
2018-07-28T01:34:00.956Z,1002.05
2018-07-28T01:35:00.948Z,1002.07
2018-07-28T01:36:00.937Z,1002.03
2018-07-28T01:37:00.926Z,1002.02
2018-07-28T01:38:00.917Z,1002.01
2018-07-28T01:39:00.906Z,1001.99
2018-07-28T01:40:00.896Z,1001.98
2018-07-28T01:41:00.887Z,1001.96
2018-07-28T01:42:00.894Z,1001.96
2018-07-28T01:43:00.864Z,1001.93
2018-07-28T01:44:00.851Z,1001.93
2018-07-28T01:45:00.845Z,1001.93
2018-07-28T01:46:00.832Z,1001.89
2018-07-28T01:47:00.831Z,1001.84
2018-07-28T01:48:00.811Z,1001.88
2018-07-28T01:49:00.802Z,1001.85
2018-07-28T01:50:00.790Z,1001.81
2018-07-28T01:51:00.782Z,1001.78
2018-07-28T01:52:00.769Z,1001.76
2018-07-28T01:53:00.760Z,1001.76
2018-07-28T01:54:00.748Z,1001.76
2018-07-28T01:55:00.740Z,1001.71
2018-07-28T01:56:00.729Z,1001.67
2018-07-28T01:57:00.719Z,1001.66
2018-07-28T01:58:00.712Z,1001.63
2018-07-28T01:59:00.696Z,1001.58
2018-07-28T02:00:00.688Z,1001.59
2018-07-28T02:01:00.680Z,1001.57
2018-07-28T02:02:00.667Z,1001.56
2018-07-28T02:03:00.857Z,1001.55
2018-07-28T02:04:00.647Z,1001.56
2018-07-28T02:05:00.635Z,1001.56
2018-07-28T02:06:00.624Z,1001.54
2018-07-28T02:07:00.613Z,1001.54
2018-07-28T02:08:00.604Z,1001.50
2018-07-28T02:09:00.591Z,1001.52
2018-07-28T02:10:00.586Z,1001.49
2018-07-28T02:11:00.570Z,1001.50
2018-07-28T02:12:00.560Z,1001.44
2018-07-28T02:13:00.549Z,1001.44
2018-07-28T02:14:00.536Z,1001.40
2018-07-28T02:15:00.530Z,1001.38
2018-07-28T02:16:00.517Z,1001.37
2018-07-28T02:17:00.514Z,1001.37
2018-07-28T02:18:00.494Z,1001.33
2018-07-28T02:19:00.485Z,1001.30
2018-07-28T02:20:00.474Z,1001.26
2018-07-28T02:21:00.464Z,1001.24
2018-07-28T02:22:00.453Z,1001.23
2018-07-28T02:23:00.442Z,1001.21
2018-07-28T02:24:00.432Z,1001.19
2018-07-28T02:25:00.421Z,1001.17
2018-07-28T02:26:00.415Z,1001.14
2018-07-28T02:27:00.400Z,1001.15
2018-07-28T02:28:00.391Z,1001.13
2018-07-28T02:29:00.378Z,1001.11
2018-07-28T02:30:00.376Z,1001.14
2018-07-28T02:31:00.359Z,1001.11
2018-07-28T02:32:00.349Z,1001.13
2018-07-28T02:33:00.336Z,1001.12
2018-07-28T02:34:00.328Z,1001.11
2018-07-28T02:35:00.317Z,1001.10
2018-07-28T02:36:00.312Z,1001.06
2018-07-28T02:37:00.294Z,1001.07
2018-07-28T02:38:00.282Z,1001.05
2018-07-28T02:39:00.272Z,1001.05
2018-07-28T02:40:00.261Z,1001.04
2018-07-28T02:41:00.251Z,1001.03
2018-07-28T02:42:00.240Z,1001.02
2018-07-28T02:43:00.231Z,1001.01
2018-07-28T02:44:00.219Z,1000.98
2018-07-28T02:45:00.219Z,1000.99
2018-07-28T02:46:00.198Z,1000.96
2018-07-28T02:47:00.187Z,1000.95
2018-07-28T02:48:00.183Z,1000.93
2018-07-28T02:49:00.166Z,1000.96
2018-07-28T02:50:00.154Z,1000.93
2018-07-28T02:51:00.146Z,1000.89
2018-07-28T02:52:00.134Z,1000.88
2018-07-28T02:53:00.123Z,1000.84
2018-07-28T02:54:00.117Z,1000.78
2018-07-28T02:55:00.102Z,1000.73
2018-07-28T02:56:00.090Z,1000.77
2018-07-28T02:57:00.080Z,1000.72
2018-07-28T02:58:00.080Z,1000.73
2018-07-28T02:59:00.062Z,1000.72
2018-07-28T03:00:00.063Z,1000.68
2018-07-28T03:01:00.039Z,1000.70
2018-07-28T03:02:00.025Z,1000.68
2018-07-28T03:03:00.025Z,1000.70
2018-07-28T03:04:00.007Z,1000.64
2018-07-28T03:04:59.997Z,1000.63
2018-07-28T03:05:59.991Z,1000.64
2018-07-28T03:06:59.971Z,1000.67
2018-07-28T03:07:59.966Z,1000.66
2018-07-28T03:08:59.951Z,1000.60
2018-07-28T03:09:59.940Z,1000.64
2018-07-28T03:10:59.926Z,1000.64
2018-07-28T03:11:59.916Z,1000.62
2018-07-28T03:12:59.903Z,1000.60
2018-07-28T03:13:59.893Z,1000.62
2018-07-28T03:14:59.881Z,1000.60
2018-07-28T03:15:59.872Z,1000.64
2018-07-28T03:16:59.861Z,1000.59
2018-07-28T03:17:59.852Z,1000.56
2018-07-28T03:18:59.838Z,1000.59
2018-07-28T03:19:59.827Z,1000.58
2018-07-28T03:20:59.817Z,1000.57
2018-07-28T03:21:59.804Z,1000.56
2018-07-28T03:22:59.794Z,1000.61
2018-07-28T03:23:59.785Z,1000.59
2018-07-28T03:24:59.771Z,1000.60
2018-07-28T03:25:59.761Z,1000.61
2018-07-28T03:26:59.758Z,1000.67
2018-07-28T03:27:59.738Z,1000.62
2018-07-28T03:28:59.728Z,1000.59
2018-07-28T03:29:59.717Z,1000.62
2018-07-28T03:30:59.710Z,1000.65
2018-07-28T03:31:59.695Z,1000.67
2018-07-28T03:32:59.683Z,1000.65
2018-07-28T03:33:59.672Z,1000.62
2018-07-28T03:34:59.671Z,1000.55
2018-07-28T03:35:59.659Z,1000.54
2018-07-28T03:36:59.641Z,1000.56
2018-07-28T03:37:59.628Z,1000.56
2018-07-28T03:38:59.616Z,1000.66
2018-07-28T03:39:59.614Z,1000.65
2018-07-28T03:40:59.602Z,1000.69
2018-07-28T03:41:59.585Z,1000.62
2018-07-28T03:42:59.572Z,1000.59
2018-07-28T03:43:59.569Z,1000.54
2018-07-28T03:44:59.551Z,1000.54
2018-07-28T03:45:59.541Z,1000.52
2018-07-28T03:46:59.527Z,1000.54
2018-07-28T03:47:59.517Z,1000.56
2018-07-28T03:48:59.514Z,1000.51
2018-07-28T03:49:59.494Z,1000.57
2018-07-28T03:50:59.535Z,1000.56
2018-07-28T03:51:59.475Z,1000.56
2018-07-28T03:52:59.462Z,1000.50
2018-07-28T03:53:59.453Z,1000.48
2018-07-28T03:54:59.447Z,1000.52
2018-07-28T03:55:59.428Z,1000.48
2018-07-28T03:56:59.418Z,1000.50
2018-07-28T03:57:59.406Z,1000.45
2018-07-28T03:58:59.396Z,1000.45
2018-07-28T03:59:59.384Z,1000.46
2018-07-28T04:00:59.372Z,1000.45
2018-07-28T04:01:59.361Z,1000.39
2018-07-28T04:02:59.350Z,1000.38
2018-07-28T04:03:59.344Z,1000.33
2018-07-28T04:04:59.328Z,1000.33
2018-07-28T04:05:59.327Z,1000.33
2018-07-28T04:06:59.315Z,1000.36
2018-07-28T04:07:59.296Z,1000.33
2018-07-28T04:08:59.284Z,1000.32
2018-07-28T04:09:59.272Z,1000.33
2018-07-28T04:10:59.260Z,1000.30
2018-07-28T04:11:59.251Z,1000.27
2018-07-28T04:12:59.239Z,1000.27
2018-07-28T04:13:59.227Z,1000.24
2018-07-28T04:14:59.220Z,1000.24
2018-07-28T04:15:59.206Z,1000.23
2018-07-28T04:16:59.195Z,1000.27
2018-07-28T04:17:59.183Z,1000.30
2018-07-28T04:18:59.172Z,1000.34
2018-07-28T04:19:59.162Z,1000.33
2018-07-28T04:20:59.150Z,1000.37
2018-07-28T04:21:59.144Z,1000.46
2018-07-28T04:22:59.127Z,1000.55
2018-07-28T04:23:59.115Z,1000.74
2018-07-28T04:24:59.104Z,1000.84
2018-07-28T04:25:59.093Z,1000.83
2018-07-28T04:26:59.082Z,1000.80
2018-07-28T04:27:59.073Z,1000.76
2018-07-28T04:28:59.061Z,1000.74
2018-07-28T04:29:59.051Z,1000.69
2018-07-28T04:30:59.045Z,1000.66
2018-07-28T04:31:59.027Z,1000.68
2018-07-28T04:32:59.015Z,1000.68
2018-07-28T04:33:59.004Z,1000.63
2018-07-28T04:34:58.995Z,1000.64
2018-07-28T04:35:58.980Z,1000.72
2018-07-28T04:36:59.015Z,1000.82
2018-07-28T04:37:58.958Z,1000.90
2018-07-28T04:38:58.948Z,1000.86
2018-07-28T04:39:58.939Z,1000.72
2018-07-28T04:40:58.926Z,1000.76
2018-07-28T04:41:58.913Z,1000.93
2018-07-28T04:42:58.903Z,1000.98
2018-07-28T04:43:58.909Z,1000.99
2018-07-28T04:44:58.881Z,1000.86
2018-07-28T04:45:58.868Z,1000.63
2018-07-28T04:46:58.910Z,1000.55
2018-07-28T04:47:58.850Z,1000.59
2018-07-28T04:48:58.836Z,1000.63
2018-07-28T04:49:58.829Z,1000.88
2018-07-28T04:50:58.814Z,1001.04
2018-07-28T04:51:58.804Z,1001.07
2018-07-28T04:52:58.793Z,1000.98
2018-07-28T04:53:58.783Z,1000.75
2018-07-28T04:54:58.769Z,1000.68
2018-07-28T04:55:58.763Z,1000.70
2018-07-28T04:56:58.750Z,1000.78
2018-07-28T04:57:58.737Z,1000.95
2018-07-28T04:58:58.725Z,1001.10
2018-07-28T04:59:58.715Z,1001.13
2018-07-28T05:00:58.705Z,1000.94
2018-07-28T05:01:58.692Z,1000.75
2018-07-28T05:02:58.687Z,1000.76
2018-07-28T05:03:58.673Z,1000.90
2018-07-28T05:04:58.660Z,1000.93
2018-07-28T05:05:58.648Z,1000.96
2018-07-28T05:06:58.639Z,1000.80
2018-07-28T05:07:58.632Z,1000.76
2018-07-28T05:08:58.619Z,1000.73
2018-07-28T05:09:58.606Z,1000.75
2018-07-28T05:10:58.595Z,1000.77
2018-07-28T05:11:58.584Z,1000.77
2018-07-28T05:12:58.574Z,1000.73
2018-07-28T05:13:58.563Z,1000.79
2018-07-28T05:14:58.552Z,1000.78
2018-07-28T05:15:58.596Z,1000.64
2018-07-28T05:16:58.532Z,1000.49
2018-07-28T05:17:58.518Z,1000.43
2018-07-28T05:18:58.506Z,1000.44
2018-07-28T05:19:58.496Z,1000.45
2018-07-28T05:20:58.488Z,1000.50
2018-07-28T05:21:58.475Z,1000.60
2018-07-28T05:22:58.463Z,1000.66
2018-07-28T05:23:58.454Z,1000.70
2018-07-28T05:24:58.448Z,1000.68
2018-07-28T05:25:58.432Z,1000.63
2018-07-28T05:26:58.422Z,1000.59
2018-07-28T05:27:58.436Z,1000.58
2018-07-28T05:28:58.398Z,1000.56
2018-07-28T05:29:58.386Z,1000.52
2018-07-28T05:30:58.374Z,1000.52
2018-07-28T05:31:58.367Z,1000.49
2018-07-28T05:32:58.355Z,1000.53
2018-07-28T05:33:58.345Z,1000.49
2018-07-28T05:34:58.334Z,1000.52
2018-07-28T05:35:58.326Z,1000.45
2018-07-28T05:36:58.324Z,1000.48
2018-07-28T05:37:58.300Z,1000.48
2018-07-28T05:38:58.328Z,1000.56
2018-07-28T05:39:58.279Z,1000.57
2018-07-28T05:40:58.268Z,1000.56
2018-07-28T05:41:58.255Z,1000.52
2018-07-28T05:42:58.345Z,1000.52
2018-07-28T05:43:58.240Z,1000.51
2018-07-28T05:44:58.226Z,1000.49
2018-07-28T05:45:58.210Z,1000.54
2018-07-28T05:46:58.200Z,1000.61
2018-07-28T05:47:58.192Z,1000.60
2018-07-28T05:48:58.194Z,1000.55
2018-07-28T05:49:58.211Z,1000.56
2018-07-28T05:50:58.158Z,1000.57
2018-07-28T05:51:58.147Z,1000.48
2018-07-28T05:52:58.134Z,1001.01
2018-07-28T05:53:58.123Z,1001.09
2018-07-28T05:54:58.121Z,1001.14
2018-07-28T05:55:58.103Z,1001.16
2018-07-28T05:56:58.093Z,1001.21
2018-07-28T05:57:58.089Z,1001.28
2018-07-28T05:58:58.089Z,1001.27
2018-07-28T05:59:58.070Z,1001.26
2018-07-28T06:00:58.054Z,1001.23
2018-07-28T06:01:58.046Z,1001.24
2018-07-28T06:02:58.034Z,1001.24
2018-07-28T06:03:58.026Z,1001.27
2018-07-28T06:04:58.017Z,1001.32
2018-07-28T06:05:58.007Z,1001.33
2018-07-28T06:06:58.000Z,1001.35
2018-07-28T06:07:57.998Z,1001.55
2018-07-28T06:08:57.986Z,1001.71
2018-07-28T06:09:57.979Z,1001.65
2018-07-28T06:10:57.984Z,1001.47
2018-07-28T06:11:57.964Z,1001.49
2018-07-28T06:12:58.008Z,1001.52
2018-07-28T06:13:57.954Z,1001.51
2018-07-28T06:14:57.944Z,1001.50
2018-07-28T06:15:57.938Z,1001.45
2018-07-28T06:16:57.932Z,1001.45
2018-07-28T06:17:57.926Z,1001.42
2018-07-28T06:18:57.921Z,1001.42
2018-07-28T06:20:41.951Z,1001.33
2018-07-28T06:21:41.943Z,1001.27
2018-07-28T06:22:41.943Z,1001.26
2018-07-28T06:23:42.089Z,1001.17
2018-07-28T06:24:41.932Z,1001.13
2018-07-28T06:25:41.929Z,1001.14
2018-07-28T06:26:41.925Z,1001.12
2018-07-28T06:27:41.919Z,1001.17
2018-07-28T06:28:42.931Z,1001.21
2018-07-28T06:29:41.913Z,1001.22
2018-07-28T06:30:41.910Z,1001.26
2018-07-28T06:31:41.988Z,1001.24
2018-07-28T06:32:41.903Z,1001.24
2018-07-28T06:33:41.899Z,1001.28
2018-07-28T06:34:41.900Z,1001.26
2018-07-28T06:35:41.895Z,1001.21
2018-07-28T06:36:41.900Z,1001.20
2018-07-28T06:37:41.888Z,1001.17
2018-07-28T06:38:41.889Z,1001.12
2018-07-28T06:39:41.884Z,1001.11
2018-07-28T06:40:41.881Z,1001.08
2018-07-28T06:41:41.880Z,1001.10
2018-07-28T06:42:41.890Z,1001.04
2018-07-28T06:43:41.874Z,1001.03
2018-07-28T06:44:41.873Z,1001.07
2018-07-28T06:46:25.704Z,1001.07
2018-07-28T06:47:25.709Z,1001.05
2018-07-28T06:49:09.786Z,1001.02
2018-07-28T06:50:09.793Z,1001.00
2018-07-28T06:51:09.779Z,1000.97
2018-07-28T06:52:09.778Z,1000.95
2018-07-28T06:53:09.784Z,1000.93
2018-07-28T06:54:09.776Z,1000.95
2018-07-28T06:55:09.773Z,1000.81
2018-07-28T06:56:09.783Z,1000.79
2018-07-28T06:57:09.771Z,1000.88
2018-07-28T06:58:09.773Z,1000.95
2018-07-28T06:59:09.768Z,1000.99
2018-07-28T07:00:09.791Z,1000.97
2018-07-28T07:01:09.766Z,1000.87
2018-07-28T07:02:09.768Z,1000.84
2018-07-28T07:03:09.764Z,1000.84
2018-07-28T07:04:09.761Z,1000.89
2018-07-28T07:05:09.761Z,1000.85
2018-07-28T07:06:09.760Z,1000.86
2018-07-28T07:07:09.760Z,1000.83
2018-07-28T07:08:09.766Z,1000.85
2018-07-28T07:09:09.759Z,1000.74
2018-07-28T07:10:09.766Z,1000.73
2018-07-28T07:11:43.032Z,1000.72
2018-07-28T07:12:09.753Z,1000.82
2018-07-28T07:13:09.756Z,1000.90
2018-07-28T07:14:09.756Z,1001.00
2018-07-28T07:15:09.756Z,1001.04
2018-07-28T07:16:09.755Z,1000.95
2018-07-28T07:17:09.760Z,1000.89
2018-07-28T07:18:09.742Z,1000.85
2018-07-28T07:19:09.741Z,1000.86
2018-07-28T07:20:09.738Z,1000.83
2018-07-28T07:21:09.736Z,1000.84
2018-07-28T07:22:09.735Z,1000.87
2018-07-28T07:23:09.730Z,1000.95
2018-07-28T07:24:09.725Z,1000.96
2018-07-28T07:25:09.732Z,1001.00
2018-07-28T07:26:09.722Z,1001.08
2018-07-28T07:27:09.778Z,1001.27
2018-07-28T07:28:09.715Z,1001.61
2018-07-28T07:29:09.720Z,1001.74
2018-07-28T07:30:09.706Z,1001.80
2018-07-28T07:31:09.705Z,1001.73
2018-07-28T07:32:09.708Z,1001.60
2018-07-28T07:33:09.696Z,1001.45
2018-07-28T07:34:09.695Z,1001.49
2018-07-28T07:35:09.686Z,1001.91
2018-07-28T07:36:09.706Z,1001.91
2018-07-28T07:37:09.690Z,1001.87
2018-07-28T07:38:09.678Z,1001.73
2018-07-28T07:39:09.671Z,1001.61
2018-07-28T07:40:09.675Z,1001.66
2018-07-28T07:41:09.666Z,1001.74
2018-07-28T07:42:09.662Z,1001.89
2018-07-28T07:43:09.651Z,1001.74
2018-07-28T07:44:09.649Z,1001.63
2018-07-28T07:45:09.643Z,1001.75
2018-07-28T07:46:09.650Z,1001.92
2018-07-28T07:47:09.690Z,1001.99
2018-07-28T07:48:09.629Z,1001.95
2018-07-28T07:49:09.632Z,1001.71
2018-07-28T07:50:09.627Z,1001.60
2018-07-28T07:51:09.617Z,1001.79
2018-07-28T07:52:09.611Z,1001.97
2018-07-28T07:53:09.607Z,1001.99
2018-07-28T07:54:09.605Z,1001.87
2018-07-28T07:55:09.597Z,1001.85
2018-07-28T07:56:09.600Z,1001.83
2018-07-28T07:57:09.595Z,1001.89
2018-07-28T07:58:09.592Z,1001.89
2018-07-28T07:59:09.585Z,1001.87
2018-07-28T08:00:09.579Z,1001.89
2018-07-28T08:01:09.569Z,1001.92
2018-07-28T08:02:09.565Z,1001.94
2018-07-28T08:03:09.566Z,1002.00
2018-07-28T08:04:09.558Z,1001.97
2018-07-28T08:05:09.552Z,1001.94
2018-07-28T08:06:09.546Z,1001.89
2018-07-28T08:07:09.540Z,1001.92
2018-07-28T08:08:09.536Z,1001.90
2018-07-28T08:09:09.532Z,1001.97
2018-07-28T08:10:09.527Z,1001.86
2018-07-28T08:11:09.520Z,1001.90
2018-07-28T08:12:09.525Z,1001.87
2018-07-28T08:13:09.514Z,1001.87
2018-07-28T08:14:09.519Z,1001.83
2018-07-28T08:15:09.507Z,1001.87
2018-07-28T08:16:09.509Z,1001.80
2018-07-28T08:17:09.495Z,1001.78
2018-07-28T08:18:09.497Z,1001.75
2018-07-28T08:19:09.485Z,1001.73
2018-07-28T08:20:09.489Z,1001.67
2018-07-28T08:21:09.488Z,1001.63
2018-07-28T08:22:09.480Z,1001.61
2018-07-28T08:23:09.467Z,1001.63
2018-07-28T08:24:09.463Z,1001.67
2018-07-28T08:25:09.464Z,1001.69
2018-07-28T08:26:09.666Z,1001.80
2018-07-28T08:27:09.452Z,1001.80
2018-07-28T08:28:09.444Z,1001.77
2018-07-28T08:29:09.440Z,1001.80
2018-07-28T08:30:09.435Z,1001.79
2018-07-28T08:31:09.430Z,1001.79
2018-07-28T08:32:09.427Z,1001.80
2018-07-28T08:33:09.423Z,1001.76
2018-07-28T08:34:09.423Z,1001.75
2018-07-28T08:35:09.428Z,1001.78
2018-07-28T08:36:09.405Z,1001.76
2018-07-28T08:37:09.400Z,1001.79
2018-07-28T08:38:09.396Z,1001.76
2018-07-28T08:39:09.390Z,1001.75
2018-07-28T08:40:09.393Z,1001.75
2018-07-28T08:41:09.380Z,1001.74
2018-07-28T08:42:09.373Z,1001.75
2018-07-28T08:43:09.375Z,1001.72
2018-07-28T08:44:09.366Z,1001.70
2018-07-28T08:45:09.360Z,1001.68
2018-07-28T08:46:09.355Z,1001.67
2018-07-28T08:47:09.356Z,1001.67
2018-07-28T08:48:09.342Z,1001.73
2018-07-28T08:49:09.494Z,1001.72
2018-07-28T08:50:09.382Z,1001.69
2018-07-28T08:51:09.333Z,1001.72
2018-07-28T08:52:09.319Z,1001.74
2018-07-28T08:53:09.321Z,1001.76
2018-07-28T08:54:09.307Z,1001.73
2018-07-28T08:55:09.301Z,1001.81
2018-07-28T08:56:09.303Z,1001.83
2018-07-28T08:57:09.288Z,1001.83
2018-07-28T08:58:09.284Z,1001.85
2018-07-28T08:59:09.277Z,1001.86
2018-07-28T09:00:09.272Z,1001.86
2018-07-28T09:01:09.265Z,1001.83
2018-07-28T09:02:09.260Z,1001.90
2018-07-28T09:03:09.254Z,1001.91
2018-07-28T09:04:09.255Z,1001.94
2018-07-28T09:05:09.240Z,1001.93
2018-07-28T09:06:09.233Z,1001.90
2018-07-28T09:07:09.224Z,1001.92
2018-07-28T09:08:09.225Z,1001.94
2018-07-28T09:09:09.226Z,1001.92
2018-07-28T09:10:09.205Z,1001.86
2018-07-28T09:11:09.196Z,1001.80
2018-07-28T09:12:09.190Z,1001.70
2018-07-28T09:13:09.194Z,1001.71
2018-07-28T09:14:09.175Z,1001.69
2018-07-28T09:15:09.173Z,1001.65
2018-07-28T09:16:09.163Z,1001.63
2018-07-28T09:17:09.153Z,1001.59
2018-07-28T09:18:09.148Z,1001.59
2018-07-28T09:19:09.148Z,1001.60
2018-07-28T09:20:09.133Z,1001.59
2018-07-28T09:21:09.127Z,1001.54
2018-07-28T09:22:09.130Z,1001.57
2018-07-28T09:23:09.151Z,1001.73
2018-07-28T09:24:09.120Z,1001.77
2018-07-28T09:25:09.105Z,1001.79
2018-07-28T09:26:09.091Z,1001.81
2018-07-28T09:27:09.093Z,1001.86
2018-07-28T09:28:09.076Z,1001.88
2018-07-28T09:29:09.068Z,1001.88
2018-07-28T09:30:09.060Z,1001.83
2018-07-28T09:31:09.052Z,1001.85
2018-07-28T09:32:09.047Z,1001.83
2018-07-28T09:33:09.037Z,1001.84
2018-07-28T09:34:09.031Z,1001.87
2018-07-28T09:35:09.024Z,1001.90
2018-07-28T09:36:09.017Z,1001.97
2018-07-28T09:37:09.012Z,1001.99
2018-07-28T09:38:09.027Z,1001.96
2018-07-28T09:39:08.996Z,1001.93
2018-07-28T09:40:08.990Z,1001.88
2018-07-28T09:41:08.982Z,1001.92
2018-07-28T09:42:08.971Z,1001.94
2018-07-28T09:43:08.974Z,1001.94
2018-07-28T09:44:08.958Z,1001.93
2018-07-28T09:45:08.955Z,1001.91
2018-07-28T09:46:08.942Z,1001.92
2018-07-28T09:47:08.938Z,1001.97
2018-07-28T09:48:08.931Z,1002.00
2018-07-28T09:49:08.921Z,1002.04
2018-07-28T09:50:08.915Z,1002.10
2018-07-28T09:51:08.920Z,1002.13
2018-07-28T09:52:08.900Z,1002.14
2018-07-28T09:53:08.896Z,1002.20
2018-07-28T09:54:08.893Z,1002.28
2018-07-28T09:55:08.875Z,1002.39
2018-07-28T09:56:08.887Z,1002.43
2018-07-28T09:57:08.868Z,1002.47
2018-07-28T09:58:08.853Z,1002.51
2018-07-28T09:59:08.850Z,1002.51
2018-07-28T10:00:08.845Z,1002.56
2018-07-28T10:01:08.840Z,1002.53
2018-07-28T10:02:08.824Z,1002.57
2018-07-28T10:03:08.814Z,1002.58
2018-07-28T10:04:08.808Z,1002.56
2018-07-28T10:05:08.799Z,1002.61
2018-07-28T10:06:08.813Z,1002.60
2018-07-28T10:07:08.785Z,1002.62
2018-07-28T10:08:08.778Z,1002.66
2018-07-28T10:09:08.769Z,1002.63
2018-07-28T10:10:08.762Z,1002.63
2018-07-28T10:11:08.755Z,1002.60
2018-07-28T10:12:08.745Z,1002.59
2018-07-28T10:13:08.736Z,1002.59
2018-07-28T10:14:08.730Z,1002.65
2018-07-28T10:15:08.735Z,1002.68
2018-07-28T10:16:08.733Z,1002.66
2018-07-28T10:17:08.714Z,1002.66
2018-07-28T10:18:08.693Z,1002.64
2018-07-28T10:19:08.684Z,1002.65
2018-07-28T10:20:08.687Z,1002.72
2018-07-28T10:21:08.668Z,1002.70
2018-07-28T10:22:08.666Z,1002.75
2018-07-28T10:23:08.649Z,1002.78
2018-07-28T10:24:08.669Z,1002.78
2018-07-28T10:25:08.637Z,1002.81
2018-07-28T10:26:08.626Z,1002.81
2018-07-28T10:27:08.619Z,1002.80
2018-07-28T10:28:08.606Z,1002.84
2018-07-28T10:29:08.613Z,1002.78
2018-07-28T10:30:08.633Z,1002.77
2018-07-28T10:31:08.597Z,1002.75
2018-07-28T10:32:08.570Z,1002.72
2018-07-28T10:33:08.565Z,1002.71
2018-07-28T10:34:08.555Z,1002.68
2018-07-28T10:35:08.549Z,1002.68
2018-07-28T10:36:08.542Z,1002.71
2018-07-28T10:37:08.525Z,1002.76
2018-07-28T10:38:08.515Z,1002.77
2018-07-28T10:39:08.507Z,1002.76
2018-07-28T10:40:08.501Z,1002.76
2018-07-28T10:41:08.496Z,1002.78
2018-07-28T10:42:08.483Z,1002.77
2018-07-28T10:43:08.467Z,1002.84
2018-07-28T10:44:08.461Z,1002.88
2018-07-28T10:45:08.459Z,1002.89
2018-07-28T10:46:08.439Z,1002.94
2018-07-28T10:47:08.440Z,1002.96
2018-07-28T10:48:08.421Z,1002.98
2018-07-28T10:49:08.512Z,1003.01
2018-07-28T10:50:08.401Z,1003.07
2018-07-28T10:51:08.391Z,1003.05
2018-07-28T10:52:08.394Z,1003.06
2018-07-28T10:53:08.374Z,1003.04
2018-07-28T10:54:08.517Z,1003.02
2018-07-28T10:55:08.353Z,1003.02
2018-07-28T10:56:08.352Z,1002.97
2018-07-28T10:57:08.339Z,1003.02
2018-07-28T10:58:08.330Z,1003.08
2018-07-28T10:59:08.318Z,1003.11
2018-07-28T11:00:08.379Z,1003.10
2018-07-28T11:01:08.300Z,1003.12
2018-07-28T11:02:08.300Z,1003.15
2018-07-28T11:03:08.279Z,1003.15
2018-07-28T11:04:08.272Z,1003.14
2018-07-28T11:05:08.260Z,1003.13
2018-07-28T11:06:08.258Z,1003.16
2018-07-28T11:07:08.253Z,1003.16
2018-07-28T11:08:08.240Z,1003.14
2018-07-28T11:09:08.270Z,1003.15
2018-07-28T11:10:08.286Z,1003.15
2018-07-28T11:11:08.205Z,1003.12
2018-07-28T11:12:08.199Z,1003.09
2018-07-28T11:13:08.189Z,1003.08
2018-07-28T11:14:08.181Z,1003.02
2018-07-28T11:15:08.180Z,1003.06
2018-07-28T11:16:08.163Z,1003.05
2018-07-28T11:17:08.165Z,1003.01
2018-07-28T11:18:08.147Z,1003.02
2018-07-28T11:19:08.214Z,1003.01
2018-07-28T11:20:08.132Z,1003.06
2018-07-28T11:21:08.118Z,1003.06
2018-07-28T11:22:08.111Z,1003.08
2018-07-28T11:23:08.103Z,1003.03
2018-07-28T11:24:08.101Z,1003.04
2018-07-28T11:25:08.086Z,1003.03
2018-07-28T11:26:08.197Z,1002.99
2018-07-28T11:27:08.078Z,1003.05
2018-07-28T11:28:08.068Z,1003.06
2018-07-28T11:29:08.066Z,1003.11
2018-07-28T11:30:08.048Z,1003.10
2018-07-28T11:31:08.041Z,1003.09
2018-07-28T11:32:08.145Z,1003.09
2018-07-28T11:33:08.034Z,1003.09
2018-07-28T11:34:08.018Z,1003.05
2018-07-28T11:35:08.013Z,1002.99
2018-07-28T11:36:08.015Z,1003.00
2018-07-28T11:37:07.997Z,1002.99
2018-07-28T11:38:07.994Z,1002.97
2018-07-28T11:39:07.991Z,1002.95
2018-07-28T11:40:07.975Z,1002.98
2018-07-28T11:41:07.969Z,1002.99
2018-07-28T11:42:07.969Z,1003.28
2018-07-28T11:43:07.954Z,1003.06
2018-07-28T11:44:07.948Z,1003.12
2018-07-28T11:45:07.943Z,1002.94
2018-07-28T11:46:07.934Z,1002.95
2018-07-28T11:47:07.935Z,1002.94
2018-07-28T11:48:07.925Z,1002.96
2018-07-28T11:49:07.916Z,1002.97
2018-07-28T11:50:07.916Z,1002.96
2018-07-28T11:51:07.900Z,1002.95
2018-07-28T11:52:07.902Z,1002.96
2018-07-28T11:53:07.889Z,1002.98
2018-07-28T11:54:07.883Z,1002.97
2018-07-28T11:55:07.873Z,1003.07
2018-07-28T11:56:07.867Z,1003.04
2018-07-28T11:57:07.860Z,1002.99
2018-07-28T11:58:07.919Z,1002.98
2018-07-28T11:59:07.848Z,1002.91
2018-07-28T12:00:07.849Z,1002.96
2018-07-28T12:01:07.838Z,1002.97
2018-07-28T12:02:07.835Z,1002.98
2018-07-28T12:03:07.884Z,1003.01
2018-07-28T12:04:07.818Z,1003.00
2018-07-28T12:05:07.812Z,1003.03
2018-07-28T12:06:07.824Z,1002.99
2018-07-28T12:07:07.801Z,1002.99